createdAt,value
2023-04-19T00:00:08.607Z,20.32
2023-04-19T00:00:33.212Z,20.30
2023-04-19T00:01:05.262Z,20.14
2023-04-19T00:01:28.346Z,20.22
2023-04-19T00:01:50.170Z,20.31
2023-04-19T00:02:11.849Z,20.29
2023-04-19T00:02:34.239Z,20.30
2023-04-19T00:02:57.250Z,20.26
2023-04-19T00:03:19.202Z,20.26
2023-04-19T00:03:41.045Z,20.24
2023-04-19T00:04:03.565Z,20.23
2023-04-19T00:04:26.920Z,20.23
2023-04-19T00:04:48.837Z,20.22
2023-04-19T00:05:11.947Z,20.23
2023-04-19T00:05:33.783Z,20.24
2023-04-19T00:05:59.074Z,20.24
2023-04-19T00:06:21.027Z,20.25
2023-04-19T00:06:42.579Z,20.25
2023-04-19T00:07:04.569Z,20.28
2023-04-19T00:07:27.227Z,20.28
2023-04-19T00:07:48.800Z,20.24
2023-04-19T00:08:10.560Z,20.24
2023-04-19T00:08:32.265Z,20.26
2023-04-19T00:08:54.904Z,20.21
2023-04-19T00:09:16.559Z,20.24
2023-04-19T00:09:38.314Z,20.25
2023-04-19T00:09:59.981Z,20.30
2023-04-19T00:10:21.578Z,20.28
2023-04-19T00:10:44.218Z,20.27
2023-04-19T00:11:05.894Z,20.19
2023-04-19T00:11:27.528Z,20.07
2023-04-19T00:11:49.173Z,20.04
2023-04-19T00:12:10.873Z,20.10
2023-04-19T00:12:33.605Z,20.18
2023-04-19T00:12:55.529Z,20.19
2023-04-19T00:13:17.176Z,20.22
2023-04-19T00:13:38.844Z,20.05
2023-04-19T00:14:01.424Z,20.13
2023-04-19T00:14:23.010Z,20.12
2023-04-19T00:14:46.111Z,20.16
2023-04-19T00:15:08.553Z,20.18
2023-04-19T00:15:31.126Z,20.23
2023-04-19T00:15:52.729Z,20.27
2023-04-19T00:16:14.365Z,20.22
2023-04-19T00:16:36.806Z,20.18
2023-04-19T00:16:58.650Z,20.17
2023-04-19T00:17:21.261Z,20.19
2023-04-19T00:17:43.264Z,20.21
2023-04-19T00:18:05.037Z,20.23
2023-04-19T00:18:26.746Z,20.15
2023-04-19T00:18:49.327Z,20.22
2023-04-19T00:19:11.307Z,20.17
2023-04-19T00:19:33.001Z,20.11
2023-04-19T00:19:54.637Z,20.19
2023-04-19T00:20:17.179Z,20.23
2023-04-19T00:20:38.993Z,20.08
2023-04-19T00:21:00.723Z,20.20
2023-04-19T00:21:22.478Z,20.23
2023-04-19T00:21:45.046Z,20.26
2023-04-19T00:22:06.666Z,20.23
2023-04-19T00:22:28.329Z,20.27
2023-04-19T00:22:50.058Z,20.15
2023-04-19T00:23:12.599Z,20.21
2023-04-19T00:23:34.565Z,20.25
2023-04-19T00:23:56.217Z,20.12
2023-04-19T00:24:18.002Z,20.12
2023-04-19T00:24:40.783Z,20.19
2023-04-19T00:25:02.655Z,20.20
2023-04-19T00:25:24.607Z,20.24
2023-04-19T00:25:46.469Z,20.25
2023-04-19T00:26:08.117Z,20.23
2023-04-19T00:26:30.741Z,20.19
2023-04-19T00:26:52.513Z,20.24
2023-04-19T00:27:14.188Z,20.22
2023-04-19T00:27:36.350Z,20.21
2023-04-19T00:28:38.751Z,20.19
2023-04-19T00:29:00.586Z,20.21
2023-04-19T00:29:22.237Z,20.23
2023-04-19T00:29:43.952Z,20.24
2023-04-19T00:30:09.099Z,20.19
2023-04-19T00:30:31.030Z,20.23
2023-04-19T00:30:53.166Z,20.23
2023-04-19T00:31:14.909Z,20.19
2023-04-19T00:31:39.652Z,20.24
2023-04-19T00:32:01.560Z,20.25
2023-04-19T00:32:23.238Z,20.16
2023-04-19T00:32:45.573Z,20.25
2023-04-19T00:33:12.739Z,20.25
2023-04-19T00:33:34.683Z,20.25
2023-04-19T00:33:56.696Z,20.16
2023-04-19T00:34:20.862Z,20.24
2023-04-19T00:34:42.770Z,20.24
2023-04-19T00:35:05.805Z,20.23
2023-04-19T00:35:27.613Z,20.21
2023-04-19T00:35:49.290Z,20.24
2023-04-19T00:36:10.977Z,20.26
2023-04-19T00:36:34.812Z,20.25
2023-04-19T00:36:56.783Z,20.16
2023-04-19T00:37:18.437Z,20.18
2023-04-19T00:37:40.071Z,20.20
2023-04-19T00:38:01.666Z,20.23
2023-04-19T00:38:24.520Z,20.22
2023-04-19T00:38:46.431Z,20.09
2023-04-19T00:39:08.167Z,20.19
2023-04-19T00:39:30.710Z,20.13
2023-04-19T00:39:53.268Z,20.20
2023-04-19T00:40:15.161Z,20.22
2023-04-19T00:40:37.221Z,20.17
2023-04-19T00:40:59.889Z,20.17
2023-04-19T00:41:22.493Z,20.18
2023-04-19T00:41:44.200Z,20.09
2023-04-19T00:42:05.997Z,20.12
2023-04-19T00:42:27.659Z,20.11
2023-04-19T00:42:50.288Z,20.10
2023-04-19T00:43:11.894Z,20.10
2023-04-19T00:43:35.392Z,20.09
2023-04-19T00:43:57.013Z,20.10
2023-04-19T00:44:19.606Z,20.15
2023-04-19T00:44:42.465Z,20.04
2023-04-19T00:45:04.889Z,20.02
2023-04-19T00:45:27.932Z,20.11
2023-04-19T00:45:49.752Z,20.00
2023-04-19T00:46:12.864Z,20.05
2023-04-19T00:46:34.967Z,20.09
2023-04-19T00:46:57.052Z,20.09
2023-04-19T00:47:19.755Z,20.10
2023-04-19T00:47:41.718Z,20.05
2023-04-19T00:48:03.778Z,19.98
2023-04-19T00:48:25.978Z,20.02
2023-04-19T00:48:49.892Z,20.04
2023-04-19T00:49:11.583Z,20.07
2023-04-19T00:49:33.343Z,20.04
2023-04-19T00:49:55.613Z,20.08
2023-04-19T00:50:18.491Z,19.92
2023-04-19T00:50:40.834Z,19.94
2023-04-19T00:51:02.658Z,19.99
2023-04-19T00:51:24.420Z,19.97
2023-04-19T00:51:48.013Z,20.00
2023-04-19T00:52:09.613Z,19.95
2023-04-19T00:52:33.735Z,19.96
2023-04-19T00:52:55.700Z,19.99
2023-04-19T00:53:19.086Z,20.01
2023-04-19T00:53:42.150Z,20.02
2023-04-19T00:54:04.102Z,20.03
2023-04-19T00:54:25.926Z,20.05
2023-04-19T00:54:48.712Z,19.94
2023-04-19T00:55:11.479Z,19.95
2023-04-19T00:55:33.353Z,20.01
2023-04-19T00:55:57.120Z,20.02
2023-04-19T00:56:22.130Z,20.07
2023-04-19T00:56:44.996Z,20.10
2023-04-19T00:57:07.854Z,20.11
2023-04-19T00:57:30.537Z,20.12
2023-04-19T00:57:52.415Z,20.15
2023-04-19T00:58:14.179Z,20.15
2023-04-19T00:58:39.552Z,20.10
2023-04-19T00:59:01.513Z,20.13
2023-04-19T00:59:24.653Z,20.16
2023-04-19T00:59:46.394Z,20.17
2023-04-19T01:00:10.015Z,20.08
2023-04-19T01:00:34.408Z,20.08
2023-04-19T01:00:56.853Z,20.08
2023-04-19T01:01:18.699Z,20.08
2023-04-19T01:01:41.598Z,19.99
2023-04-19T01:02:03.443Z,20.00
2023-04-19T01:02:26.201Z,20.03
2023-04-19T01:02:48.540Z,19.95
2023-04-19T01:03:10.514Z,20.02
2023-04-19T01:03:32.459Z,20.05
2023-04-19T01:03:55.649Z,20.07
2023-04-19T01:04:17.682Z,19.99
2023-04-19T01:04:41.676Z,19.97
2023-04-19T01:05:04.633Z,20.03
2023-04-19T01:05:27.445Z,20.05
2023-04-19T01:05:49.955Z,20.08
2023-04-19T01:06:11.897Z,19.99
2023-04-19T01:06:39.406Z,20.03
2023-04-19T01:07:01.833Z,20.07
2023-04-19T01:07:23.611Z,20.08
2023-04-19T01:07:46.297Z,20.09
2023-04-19T01:08:09.332Z,20.12
2023-04-19T01:08:32.048Z,20.11
2023-04-19T01:08:53.863Z,20.13
2023-04-19T01:09:17.413Z,20.11
2023-04-19T01:09:40.880Z,20.09
2023-04-19T01:10:03.653Z,20.11
2023-04-19T01:10:25.559Z,20.13
2023-04-19T01:10:47.278Z,20.13
2023-04-19T01:11:10.172Z,20.12
2023-04-19T01:11:33.628Z,19.98
2023-04-19T01:11:55.284Z,20.16
2023-04-19T01:12:18.050Z,20.16
2023-04-19T01:12:39.978Z,20.14
2023-04-19T01:13:02.735Z,20.08
2023-04-19T01:13:25.355Z,20.13
2023-04-19T01:13:47.220Z,20.13
2023-04-19T01:14:12.576Z,20.12
2023-04-19T01:14:34.245Z,20.11
2023-04-19T01:14:58.449Z,20.10
2023-04-19T01:15:21.381Z,20.10
2023-04-19T01:15:46.006Z,20.09
2023-04-19T01:16:07.967Z,20.08
2023-04-19T01:16:30.739Z,20.09
2023-04-19T01:16:53.119Z,20.08
2023-04-19T01:17:15.013Z,20.08
2023-04-19T01:17:37.953Z,20.08
2023-04-19T01:18:03.087Z,20.09
2023-04-19T01:18:25.862Z,20.09
2023-04-19T01:18:49.953Z,20.05
2023-04-19T01:19:12.160Z,20.08
2023-04-19T01:19:39.513Z,20.07
2023-04-19T01:20:03.740Z,20.09
2023-04-19T01:20:26.231Z,19.97
2023-04-19T01:20:49.260Z,20.09
2023-04-19T01:21:11.387Z,20.07
2023-04-19T01:21:34.538Z,19.95
2023-04-19T01:21:58.331Z,20.03
2023-04-19T01:22:22.858Z,20.05
2023-04-19T01:22:45.875Z,20.03
2023-04-19T01:23:11.439Z,20.00
2023-04-19T01:23:33.407Z,20.01
2023-04-19T01:23:58.949Z,19.98
2023-04-19T01:24:20.837Z,19.99
2023-04-19T01:24:46.523Z,20.00
2023-04-19T01:25:10.878Z,20.01
2023-04-19T01:25:32.722Z,20.01
2023-04-19T01:25:55.095Z,20.01
2023-04-19T01:26:18.835Z,20.03
2023-04-19T01:26:41.541Z,20.03
2023-04-19T01:27:04.759Z,20.02
2023-04-19T01:27:27.894Z,20.00
2023-04-19T01:27:50.606Z,20.02
2023-04-19T01:28:14.495Z,19.91
2023-04-19T01:28:36.362Z,20.01
2023-04-19T01:28:58.026Z,20.02
2023-04-19T01:29:23.425Z,19.96
2023-04-19T01:29:49.193Z,20.00
2023-04-19T01:30:13.189Z,20.01
2023-04-19T01:30:36.836Z,20.00
2023-04-19T01:30:58.599Z,20.01
2023-04-19T01:31:21.266Z,20.01
2023-04-19T01:31:43.063Z,19.99
2023-04-19T01:32:05.208Z,20.00
2023-04-19T01:32:27.910Z,20.00
2023-04-19T01:32:51.172Z,20.00
2023-04-19T01:33:12.819Z,20.01
2023-04-19T01:33:34.465Z,20.00
2023-04-19T01:33:56.045Z,20.00
2023-04-19T01:34:17.720Z,19.99
2023-04-19T01:34:40.523Z,19.99
2023-04-19T01:35:02.275Z,19.98
2023-04-19T01:35:25.291Z,19.98
2023-04-19T01:35:48.358Z,19.95
2023-04-19T01:36:11.120Z,19.98
2023-04-19T01:36:32.723Z,19.97
2023-04-19T01:36:54.280Z,19.95
2023-04-19T01:37:15.901Z,19.94
2023-04-19T01:37:39.781Z,19.95
2023-04-19T01:38:02.096Z,19.93
2023-04-19T01:38:23.894Z,19.94
2023-04-19T01:38:47.670Z,19.94
2023-04-19T01:39:09.341Z,19.91
2023-04-19T01:39:35.829Z,19.96
2023-04-19T01:39:57.462Z,19.96
2023-04-19T01:40:19.498Z,19.79
2023-04-19T01:40:41.197Z,19.93
2023-04-19T01:41:03.789Z,19.93
2023-04-19T01:41:27.257Z,19.92
2023-04-19T01:41:48.989Z,19.84
2023-04-19T01:42:10.921Z,19.92
2023-04-19T01:42:33.462Z,19.92
2023-04-19T01:42:55.601Z,19.89
2023-04-19T01:43:18.303Z,19.87
2023-04-19T01:43:39.942Z,19.89
2023-04-19T01:44:02.609Z,19.89
2023-04-19T01:44:25.384Z,19.85
2023-04-19T01:44:48.184Z,19.90
2023-04-19T01:45:10.273Z,19.87
2023-04-19T01:45:33.954Z,19.88
2023-04-19T01:45:55.768Z,19.86
2023-04-19T01:46:17.380Z,19.84
2023-04-19T01:46:39.138Z,19.82
2023-04-19T01:47:01.054Z,19.83
2023-04-19T01:47:24.997Z,19.79
2023-04-19T01:47:46.713Z,19.75
2023-04-19T01:48:08.572Z,19.78
2023-04-19T01:48:30.304Z,19.67
2023-04-19T01:48:52.900Z,19.80
2023-04-19T01:49:16.393Z,19.79
2023-04-19T01:49:38.015Z,19.77
2023-04-19T01:49:59.610Z,19.81
2023-04-19T01:50:22.227Z,19.80
2023-04-19T01:50:43.900Z,19.80
2023-04-19T01:51:05.989Z,19.79
2023-04-19T01:51:29.659Z,19.79
2023-04-19T01:51:52.254Z,19.70
2023-04-19T01:52:15.560Z,19.78
2023-04-19T01:52:37.238Z,19.77
2023-04-19T01:53:01.309Z,19.76
2023-04-19T01:53:24.030Z,19.77
2023-04-19T01:53:45.688Z,19.73
2023-04-19T01:54:07.440Z,19.75
2023-04-19T01:54:29.171Z,19.75
2023-04-19T01:54:51.836Z,19.73
2023-04-19T01:55:13.569Z,19.71
2023-04-19T01:55:35.249Z,19.76
2023-04-19T01:55:56.859Z,19.76
2023-04-19T01:56:18.496Z,19.72
2023-04-19T01:56:41.137Z,19.70
2023-04-19T01:57:03.044Z,19.70
2023-04-19T01:57:24.698Z,19.69
2023-04-19T01:57:46.311Z,19.67
2023-04-19T01:58:09.794Z,19.65
2023-04-19T01:58:31.521Z,19.65
2023-04-19T01:58:53.672Z,19.54
2023-04-19T01:59:15.339Z,19.68
2023-04-19T01:59:36.996Z,19.68
2023-04-19T01:59:59.621Z,19.65
2023-04-19T02:00:21.486Z,19.69
2023-04-19T02:00:43.166Z,19.68
2023-04-19T02:01:04.945Z,19.69
2023-04-19T02:01:27.306Z,19.68
2023-04-19T02:01:49.989Z,19.66
2023-04-19T02:02:13.128Z,19.62
2023-04-19T02:02:39.237Z,19.62
2023-04-19T02:03:02.226Z,19.58
2023-04-19T02:03:25.383Z,19.60
2023-04-19T02:03:47.329Z,19.57
2023-04-19T02:04:10.381Z,19.58
2023-04-19T02:04:34.389Z,19.58
2023-04-19T02:04:57.271Z,19.59
2023-04-19T02:05:19.644Z,19.61
2023-04-19T02:05:42.004Z,19.58
2023-04-19T02:06:03.797Z,19.57
2023-04-19T02:06:28.872Z,19.56
2023-04-19T02:06:52.058Z,19.56
2023-04-19T02:07:15.208Z,19.55
2023-04-19T02:07:37.127Z,19.56
2023-04-19T02:08:01.412Z,19.56
2023-04-19T02:08:28.095Z,19.54
2023-04-19T02:08:49.725Z,19.53
2023-04-19T02:09:12.382Z,19.22
2023-04-19T02:09:37.576Z,19.51
2023-04-19T02:10:04.358Z,19.29
2023-04-19T02:10:27.147Z,19.46
2023-04-19T02:10:50.292Z,19.44
2023-04-19T02:11:14.618Z,19.44
2023-04-19T02:11:37.227Z,19.44
2023-04-19T02:11:58.810Z,19.43
2023-04-19T02:12:20.658Z,19.29
2023-04-19T02:12:43.551Z,19.45
2023-04-19T02:13:06.235Z,19.38
2023-04-19T02:13:29.549Z,19.38
2023-04-19T02:13:52.457Z,19.36
2023-04-19T02:14:16.763Z,19.38
2023-04-19T02:14:39.381Z,19.41
2023-04-19T02:15:03.340Z,19.44
2023-04-19T02:15:24.919Z,19.41
2023-04-19T02:15:47.675Z,19.46
2023-04-19T02:16:13.060Z,19.33
2023-04-19T02:16:36.440Z,19.44
2023-04-19T02:17:01.652Z,19.32
2023-04-19T02:17:23.375Z,19.46
2023-04-19T02:17:47.748Z,19.44
2023-04-19T02:18:11.698Z,19.43
2023-04-19T02:18:40.547Z,19.41
2023-04-19T02:19:02.360Z,19.44
2023-04-19T02:19:24.946Z,19.45
2023-04-19T02:19:47.970Z,19.46
2023-04-19T02:20:10.826Z,19.48
2023-04-19T02:20:32.637Z,19.48
2023-04-19T02:20:57.291Z,19.46
2023-04-19T02:21:21.829Z,19.48
2023-04-19T02:21:43.925Z,19.49
2023-04-19T02:22:09.668Z,19.49
2023-04-19T02:22:35.216Z,19.49
2023-04-19T02:22:56.875Z,19.49
2023-04-19T02:23:18.590Z,19.49
2023-04-19T02:23:41.577Z,19.49
2023-04-19T02:24:06.236Z,19.48
2023-04-19T02:24:27.828Z,19.48
2023-04-19T02:24:50.219Z,19.46
2023-04-19T02:25:11.917Z,19.48
2023-04-19T02:25:33.868Z,19.45
2023-04-19T02:25:56.484Z,19.44
2023-04-19T02:26:18.293Z,19.29
2023-04-19T02:26:40.221Z,19.42
2023-04-19T02:27:01.955Z,19.44
2023-04-19T02:27:24.667Z,19.39
2023-04-19T02:27:46.592Z,19.37
2023-04-19T02:28:08.394Z,19.36
2023-04-19T02:28:30.104Z,19.35
2023-04-19T02:28:53.309Z,19.33
2023-04-19T02:29:16.843Z,19.34
2023-04-19T02:29:38.979Z,19.29
2023-04-19T02:30:00.937Z,19.33
2023-04-19T02:30:22.750Z,19.35
2023-04-19T02:30:46.759Z,19.32
2023-04-19T02:31:08.416Z,19.35
2023-04-19T02:31:30.243Z,19.20
2023-04-19T02:31:51.956Z,19.33
2023-04-19T02:32:14.609Z,19.33
2023-04-19T02:32:36.510Z,19.33
2023-04-19T02:33:02.464Z,19.32
2023-04-19T02:33:26.063Z,19.34
2023-04-19T02:33:48.277Z,19.33
2023-04-19T02:34:12.266Z,19.36
2023-04-19T02:34:34.763Z,19.15
2023-04-19T02:34:57.136Z,19.34
2023-04-19T02:35:19.472Z,19.30
2023-04-19T02:35:42.554Z,19.36
2023-04-19T02:36:05.062Z,19.36
2023-04-19T02:36:30.733Z,19.35
2023-04-19T02:36:52.984Z,19.35
2023-04-19T02:37:18.360Z,19.38
2023-04-19T02:37:44.477Z,19.36
2023-04-19T02:38:06.308Z,19.38
2023-04-19T02:38:29.971Z,19.36
2023-04-19T02:38:53.951Z,19.37
2023-04-19T02:39:16.784Z,19.35
2023-04-19T02:39:38.691Z,19.34
2023-04-19T02:40:01.042Z,19.32
2023-04-19T02:40:28.050Z,19.33
2023-04-19T02:40:50.085Z,19.35
2023-04-19T02:41:11.734Z,19.37
2023-04-19T02:41:36.619Z,19.37
2023-04-19T02:42:00.145Z,19.38
2023-04-19T02:42:21.813Z,19.35
2023-04-19T02:42:43.894Z,19.34
2023-04-19T02:43:05.675Z,19.32
2023-04-19T02:43:29.630Z,19.27
2023-04-19T02:43:51.922Z,19.34
2023-04-19T02:44:14.815Z,19.28
2023-04-19T02:44:38.222Z,19.22
2023-04-19T02:45:01.185Z,19.31
2023-04-19T02:45:23.057Z,19.30
2023-04-19T02:45:45.895Z,19.28
2023-04-19T02:46:08.400Z,19.05
2023-04-19T02:46:30.475Z,19.22
2023-04-19T02:46:54.615Z,19.24
2023-04-19T02:47:17.511Z,19.25
2023-04-19T02:47:40.618Z,19.24
2023-04-19T02:48:04.834Z,19.27
2023-04-19T02:48:29.170Z,19.28
2023-04-19T02:48:50.845Z,19.30
2023-04-19T02:49:13.595Z,19.17
2023-04-19T02:49:39.911Z,19.29
2023-04-19T02:50:06.025Z,19.34
2023-04-19T02:50:34.744Z,19.36
2023-04-19T02:50:56.411Z,19.35
2023-04-19T02:51:18.986Z,19.35
2023-04-19T02:51:42.692Z,19.35
2023-04-19T02:52:05.807Z,19.32
2023-04-19T02:52:30.348Z,19.22
2023-04-19T02:52:52.088Z,19.39
2023-04-19T02:53:16.488Z,19.27
2023-04-19T02:53:39.773Z,19.39
2023-04-19T02:54:05.233Z,19.40
2023-04-19T02:54:26.991Z,19.40
2023-04-19T02:54:49.918Z,19.36
2023-04-19T02:55:11.800Z,19.29
2023-04-19T02:55:33.960Z,19.33
2023-04-19T02:56:03.849Z,19.39
2023-04-19T02:56:26.585Z,19.42
2023-04-19T02:56:49.462Z,19.41
2023-04-19T02:57:12.021Z,19.45
2023-04-19T02:57:36.086Z,19.44
2023-04-19T02:57:58.685Z,19.45
2023-04-19T02:58:21.335Z,19.43
2023-04-19T02:59:00.930Z,19.40
2023-04-19T02:59:22.591Z,19.35
2023-04-19T02:59:44.570Z,19.42
2023-04-19T03:00:10.594Z,19.40
2023-04-19T03:00:34.535Z,19.39
2023-04-19T03:01:03.827Z,19.40
2023-04-19T03:01:27.672Z,19.43
2023-04-19T03:01:50.645Z,19.39
2023-04-19T03:02:13.326Z,19.36
2023-04-19T03:02:35.265Z,19.42
2023-04-19T03:02:57.726Z,19.47
2023-04-19T03:03:24.487Z,19.44
2023-04-19T03:03:46.573Z,19.35
2023-04-19T03:04:08.529Z,19.38
2023-04-19T03:04:32.143Z,19.44
2023-04-19T03:04:54.023Z,19.44
2023-04-19T03:05:16.891Z,19.40
2023-04-19T03:05:38.514Z,19.36
2023-04-19T03:06:00.195Z,19.37
2023-04-19T03:06:23.935Z,19.33
2023-04-19T03:06:45.573Z,19.35
2023-04-19T03:07:09.012Z,19.35
2023-04-19T03:07:31.336Z,19.34
2023-04-19T03:07:53.651Z,19.33
2023-04-19T03:08:16.238Z,19.32
2023-04-19T03:08:39.278Z,19.31
2023-04-19T03:09:02.285Z,19.31
2023-04-19T03:09:23.952Z,19.28
2023-04-19T03:09:46.578Z,19.27
2023-04-19T03:10:09.344Z,19.28
2023-04-19T03:10:31.145Z,19.21
2023-04-19T03:10:52.758Z,19.23
2023-04-19T03:11:17.258Z,19.23
2023-04-19T03:11:38.975Z,19.15
2023-04-19T03:12:01.237Z,19.23
2023-04-19T03:12:22.858Z,19.20
2023-04-19T03:12:44.463Z,19.18
2023-04-19T03:13:07.444Z,19.22
2023-04-19T03:13:29.204Z,19.20
2023-04-19T03:13:50.890Z,19.20
2023-04-19T03:14:12.686Z,19.14
2023-04-19T03:14:35.771Z,19.16
2023-04-19T03:14:58.108Z,19.16
2023-04-19T03:15:20.706Z,19.15
2023-04-19T03:15:43.620Z,19.18
2023-04-19T03:16:06.917Z,19.17
2023-04-19T03:16:30.472Z,19.18
2023-04-19T03:16:52.412Z,19.18
2023-04-19T03:17:17.412Z,19.19
2023-04-19T03:17:40.032Z,19.16
2023-04-19T03:18:02.400Z,19.07
2023-04-19T03:18:24.805Z,19.11
2023-04-19T03:18:50.601Z,18.69
2023-04-19T03:19:15.980Z,18.98
2023-04-19T03:19:43.703Z,19.07
2023-04-19T03:20:10.923Z,19.08
2023-04-19T03:20:34.384Z,19.05
2023-04-19T03:20:57.256Z,19.05
2023-04-19T03:21:21.926Z,19.01
2023-04-19T03:21:48.684Z,19.01
2023-04-19T03:22:13.820Z,18.84
2023-04-19T03:22:35.537Z,18.95
2023-04-19T03:22:57.894Z,18.92
2023-04-19T03:23:20.937Z,18.99
2023-04-19T03:23:46.171Z,19.03
2023-04-19T03:24:12.320Z,19.07
2023-04-19T03:24:38.206Z,19.04
2023-04-19T03:25:21.298Z,19.02
2023-04-19T03:25:51.119Z,19.09
2023-04-19T03:26:26.760Z,19.09
2023-04-19T03:26:52.026Z,19.07
2023-04-19T03:27:18.534Z,19.06
2023-04-19T03:27:45.216Z,19.04
2023-04-19T03:28:09.540Z,19.06
2023-04-19T03:29:01.447Z,19.07
2023-04-19T03:29:29.707Z,19.06
2023-04-19T03:29:55.650Z,19.07
2023-04-19T03:30:19.970Z,19.02
2023-04-19T03:30:42.536Z,19.08
2023-04-19T03:31:04.386Z,19.10
2023-04-19T03:31:26.135Z,19.08
2023-04-19T03:31:48.888Z,19.13
2023-04-19T03:32:10.723Z,19.12
2023-04-19T03:32:33.461Z,19.12
2023-04-19T03:32:55.688Z,19.13
2023-04-19T03:33:17.364Z,19.14
2023-04-19T03:33:40.194Z,19.17
2023-04-19T03:34:01.908Z,19.20
2023-04-19T03:34:29.715Z,19.20
2023-04-19T03:34:52.348Z,19.19
2023-04-19T03:35:14.060Z,19.16
2023-04-19T03:35:35.863Z,19.21
2023-04-19T03:36:05.914Z,19.23
2023-04-19T03:36:28.810Z,19.20
2023-04-19T03:36:50.674Z,19.21
2023-04-19T03:37:13.748Z,19.16
2023-04-19T03:37:35.623Z,19.20
2023-04-19T03:37:58.350Z,19.20
2023-04-19T03:38:20.983Z,19.16
2023-04-19T03:38:44.338Z,19.14
2023-04-19T03:39:12.692Z,19.10
2023-04-19T03:39:36.285Z,19.06
2023-04-19T03:40:01.779Z,19.00
2023-04-19T03:40:28.353Z,19.02
2023-04-19T03:40:50.237Z,19.04
2023-04-19T03:41:19.044Z,19.07
2023-04-19T03:41:41.905Z,19.05
2023-04-19T03:42:28.738Z,19.10
2023-04-19T03:43:12.531Z,19.05
2023-04-19T03:43:34.541Z,19.12
2023-04-19T03:43:57.599Z,19.07
2023-04-19T03:44:19.802Z,19.09
2023-04-19T03:44:42.122Z,19.10
2023-04-19T03:45:06.351Z,19.12
2023-04-19T03:45:34.181Z,19.10
2023-04-19T03:45:57.416Z,19.10
2023-04-19T03:46:19.266Z,19.12
2023-04-19T03:46:46.340Z,19.15
2023-04-19T03:47:09.906Z,19.14
2023-04-19T03:47:37.301Z,19.07
2023-04-19T03:48:02.805Z,19.14
2023-04-19T03:48:26.459Z,19.13
2023-04-19T03:48:49.219Z,19.12
2023-04-19T03:49:12.316Z,19.14
2023-04-19T03:49:37.311Z,18.97
2023-04-19T03:50:00.405Z,19.08
2023-04-19T03:50:25.993Z,19.06
2023-04-19T03:50:51.497Z,19.02
2023-04-19T03:51:16.035Z,19.07
2023-04-19T03:51:37.737Z,19.10
2023-04-19T03:52:01.621Z,19.12
2023-04-19T03:52:25.820Z,19.10
2023-04-19T03:52:47.562Z,19.11
2023-04-19T03:53:10.315Z,19.09
2023-04-19T03:53:32.743Z,19.07
2023-04-19T03:53:59.286Z,19.05
2023-04-19T03:54:25.525Z,18.98
2023-04-19T03:54:48.107Z,18.98
2023-04-19T03:55:21.719Z,18.98
2023-04-19T03:55:43.547Z,18.99
2023-04-19T03:56:06.273Z,18.89
2023-04-19T03:56:30.161Z,18.95
2023-04-19T03:56:51.862Z,18.97
2023-04-19T03:57:17.772Z,18.96
2023-04-19T03:57:40.250Z,18.90
2023-04-19T03:58:11.068Z,18.96
2023-04-19T03:58:42.880Z,18.94
2023-04-19T03:59:05.754Z,18.93
2023-04-19T03:59:31.292Z,18.92
2023-04-19T03:59:56.080Z,18.93
2023-04-19T04:00:18.642Z,18.92
2023-04-19T04:00:48.418Z,18.92
2023-04-19T04:01:19.986Z,18.90
2023-04-19T04:01:42.605Z,18.91
2023-04-19T04:02:07.799Z,18.93
2023-04-19T04:02:32.134Z,18.96
2023-04-19T04:02:55.598Z,18.94
2023-04-19T04:03:17.634Z,18.95
2023-04-19T04:03:40.121Z,18.95
2023-04-19T04:04:05.140Z,18.92
2023-04-19T04:04:27.369Z,18.93
2023-04-19T04:04:55.989Z,18.93
2023-04-19T04:05:20.217Z,18.96
2023-04-19T04:05:43.514Z,18.94
2023-04-19T04:06:05.679Z,18.96
2023-04-19T04:06:27.879Z,18.88
2023-04-19T04:06:52.135Z,18.97
2023-04-19T04:07:13.781Z,18.84
2023-04-19T04:07:35.475Z,18.97
2023-04-19T04:07:57.863Z,18.95
2023-04-19T04:08:21.529Z,18.91
2023-04-19T04:08:43.191Z,18.88
2023-04-19T04:09:04.825Z,18.83
2023-04-19T04:09:27.774Z,18.71
2023-04-19T04:09:50.638Z,18.88
2023-04-19T04:10:12.292Z,18.88
2023-04-19T04:10:37.414Z,18.90
2023-04-19T04:10:59.280Z,18.91
2023-04-19T04:11:21.193Z,18.90
2023-04-19T04:11:44.908Z,18.90
2023-04-19T04:12:07.167Z,18.91
2023-04-19T04:12:28.944Z,18.92
2023-04-19T04:12:51.236Z,18.92
2023-04-19T04:13:20.324Z,18.93
2023-04-19T04:13:51.152Z,18.94
2023-04-19T04:14:16.885Z,18.92
2023-04-19T04:14:39.633Z,18.92
2023-04-19T04:15:03.261Z,18.93
2023-04-19T04:15:25.837Z,18.96
2023-04-19T04:15:48.889Z,18.93
2023-04-19T04:16:11.457Z,18.90
2023-04-19T04:16:34.582Z,18.94
2023-04-19T04:16:56.243Z,18.91
2023-04-19T04:17:17.969Z,18.90
2023-04-19T04:17:39.693Z,18.90
2023-04-19T04:18:02.012Z,18.91
2023-04-19T04:18:27.018Z,18.91
2023-04-19T04:18:48.781Z,18.91
2023-04-19T04:19:10.767Z,18.93
2023-04-19T04:19:35.537Z,18.96
2023-04-19T04:19:58.370Z,18.96
2023-04-19T04:20:23.529Z,18.99
2023-04-19T04:20:49.576Z,18.97
2023-04-19T04:21:11.322Z,19.01
2023-04-19T04:21:37.202Z,18.88
2023-04-19T04:22:00.789Z,19.00
2023-04-19T04:22:24.686Z,18.97
2023-04-19T04:22:47.198Z,18.96
2023-04-19T04:23:12.288Z,19.02
2023-04-19T04:23:38.511Z,18.97
2023-04-19T04:24:04.706Z,19.05
2023-04-19T04:24:41.372Z,19.04
2023-04-19T04:25:24.263Z,19.03
2023-04-19T04:25:46.131Z,18.98
2023-04-19T04:26:09.968Z,19.06
2023-04-19T04:27:00.789Z,19.03
2023-04-19T04:27:25.116Z,18.98
2023-04-19T04:27:50.742Z,18.97
2023-04-19T04:28:14.390Z,18.95
2023-04-19T04:28:38.412Z,18.97
2023-04-19T04:29:00.679Z,18.97
2023-04-19T04:29:24.141Z,18.98
2023-04-19T04:29:54.006Z,18.94
2023-04-19T04:30:18.829Z,18.97
2023-04-19T04:30:41.873Z,18.97
2023-04-19T04:31:06.762Z,18.96
2023-04-19T04:31:30.126Z,18.95
2023-04-19T04:31:52.844Z,18.97
2023-04-19T04:32:23.277Z,18.89
2023-04-19T04:32:51.320Z,18.96
2023-04-19T04:33:16.076Z,18.96
2023-04-19T04:33:39.870Z,18.99
2023-04-19T04:34:03.646Z,18.97
2023-04-19T04:34:27.201Z,19.00
2023-04-19T04:34:59.227Z,19.00
2023-04-19T04:35:31.079Z,19.02
2023-04-19T04:36:01.671Z,18.97
2023-04-19T04:36:29.654Z,19.06
2023-04-19T04:36:53.480Z,18.97
2023-04-19T04:37:17.852Z,19.05
2023-04-19T04:37:40.213Z,19.10
2023-04-19T04:38:11.141Z,19.05
2023-04-19T04:38:44.497Z,18.98
2023-04-19T04:39:11.064Z,19.11
2023-04-19T04:39:35.106Z,19.11
2023-04-19T04:39:58.522Z,19.12
2023-04-19T04:40:22.520Z,18.98
2023-04-19T04:40:49.109Z,19.11
2023-04-19T04:41:12.378Z,19.13
2023-04-19T04:41:35.922Z,19.09
2023-04-19T04:41:59.766Z,19.10
2023-04-19T04:42:21.741Z,19.07
2023-04-19T04:42:45.543Z,19.08
2023-04-19T04:43:08.238Z,19.01
2023-04-19T04:43:32.250Z,19.01
2023-04-19T04:44:10.785Z,18.97
2023-04-19T04:44:35.684Z,18.93
2023-04-19T04:44:57.940Z,18.98
2023-04-19T04:45:22.000Z,18.99
2023-04-19T04:45:45.586Z,18.97
2023-04-19T04:46:07.436Z,19.01
2023-04-19T04:46:33.570Z,19.03
2023-04-19T04:46:56.473Z,18.97
2023-04-19T04:47:22.025Z,19.01
2023-04-19T04:47:48.724Z,19.00
2023-04-19T04:48:12.217Z,18.95
2023-04-19T04:48:33.901Z,18.98
2023-04-19T04:48:55.714Z,19.00
2023-04-19T04:49:17.421Z,18.98
2023-04-19T04:49:40.098Z,19.01
2023-04-19T04:50:02.939Z,18.97
2023-04-19T04:50:25.228Z,19.03
2023-04-19T04:50:46.858Z,19.01
2023-04-19T04:51:08.630Z,19.03
2023-04-19T04:51:32.412Z,19.04
2023-04-19T04:51:54.995Z,19.05
2023-04-19T04:52:18.399Z,19.05
2023-04-19T04:52:51.776Z,19.05
2023-04-19T04:53:19.047Z,19.05
2023-04-19T04:53:41.287Z,19.07
2023-04-19T04:54:05.608Z,19.05
2023-04-19T04:54:27.511Z,19.11
2023-04-19T04:54:49.882Z,19.06
2023-04-19T04:55:25.421Z,19.07
2023-04-19T04:55:48.465Z,19.07
2023-04-19T04:56:10.098Z,19.07
2023-04-19T04:56:31.751Z,19.07
2023-04-19T04:56:54.886Z,19.08
2023-04-19T04:57:16.816Z,19.07
2023-04-19T04:57:38.473Z,19.09
2023-04-19T04:58:02.262Z,19.08
2023-04-19T04:58:47.837Z,19.04
2023-04-19T04:59:16.658Z,18.99
2023-04-19T04:59:41.689Z,19.09
2023-04-19T05:00:05.370Z,19.10
2023-04-19T05:00:33.566Z,19.02
2023-04-19T05:00:58.922Z,19.10
2023-04-19T05:01:22.847Z,19.00
2023-04-19T05:01:44.740Z,19.05
2023-04-19T05:02:09.719Z,19.08
2023-04-19T05:02:32.567Z,19.06
2023-04-19T05:02:54.665Z,19.09
2023-04-19T05:03:17.970Z,19.04
2023-04-19T05:03:46.659Z,19.08